createdAt,value
2019-05-05T00:00:40.576Z,76.45
2019-05-05T00:03:14.756Z,73.95
2019-05-05T00:05:48.955Z,68.95
2019-05-05T00:08:21.949Z,64.90
2019-05-05T00:11:11.471Z,72.42
2019-05-05T00:13:45.594Z,68.55
2019-05-05T00:16:31.835Z,60.48
2019-05-05T00:19:04.919Z,53.33
2019-05-05T00:21:38.827Z,61.75
2019-05-05T00:24:11.623Z,70.83
2019-05-05T00:26:45.920Z,62.23
2019-05-05T00:29:18.171Z,71.35
2019-05-05T00:31:50.833Z,65.45
2019-05-05T00:34:24.467Z,58.30
2019-05-05T00:36:57.607Z,50.58
2019-05-05T00:42:04.656Z,63.80
2019-05-05T00:44:36.459Z,62.48
2019-05-05T00:47:26.806Z,66.33
2019-05-05T00:49:59.806Z,59.93
2019-05-05T00:52:34.979Z,57.23
2019-05-05T00:55:11.263Z,58.38
2019-05-05T00:57:45.313Z,60.40
2019-05-05T01:00:24.671Z,53.30
2019-05-05T01:02:58.001Z,55.33
2019-05-05T01:05:34.847Z,56.18
2019-05-05T01:08:09.962Z,49.75
2019-05-05T01:10:44.232Z,62.15
2019-05-05T01:13:16.622Z,63.48
2019-05-05T01:15:49.420Z,64.77
2019-05-05T01:18:24.448Z,58.35
2019-05-05T01:20:56.401Z,59.03
2019-05-05T01:23:28.960Z,59.80
2019-05-05T01:26:01.404Z,59.77
2019-05-05T01:28:35.538Z,59.18
2019-05-05T01:31:09.754Z,49.95
2019-05-05T01:33:44.868Z,51.83
2019-05-05T01:36:19.871Z,58.65
2019-05-05T01:38:56.811Z,52.03
2019-05-05T01:41:34.784Z,60.50
2019-05-05T01:44:08.412Z,57.80
2019-05-05T01:46:40.954Z,56.98
2019-05-05T01:49:14.667Z,68.07
2019-05-05T01:51:47.809Z,65.22
2019-05-05T01:56:52.428Z,62.27
2019-05-05T01:59:25.528Z,61.08
2019-05-05T02:01:58.213Z,52.00
2019-05-05T02:07:02.532Z,55.70
2019-05-05T02:09:35.406Z,58.10
2019-05-05T02:12:08.279Z,65.72
2019-05-05T02:14:41.071Z,61.80
2019-05-05T02:17:15.449Z,63.87
2019-05-05T02:19:49.148Z,66.30
2019-05-05T02:22:21.667Z,62.45
2019-05-05T02:24:56.065Z,61.45
2019-05-05T02:27:28.966Z,54.27
2019-05-05T02:30:06.015Z,53.83
2019-05-05T02:32:45.318Z,54.73
2019-05-05T02:35:17.995Z,56.58
2019-05-05T02:37:50.724Z,51.75
2019-05-05T02:40:24.522Z,67.03
2019-05-05T02:42:57.915Z,69.47
2019-05-05T02:45:35.376Z,77.47
2019-05-05T02:48:15.278Z,99.45
2019-05-05T02:51:01.726Z,101.60
2019-05-05T02:53:38.697Z,122.95
2019-05-05T02:56:14.867Z,124.27
2019-05-05T02:58:55.495Z,104.30
2019-05-05T03:01:44.543Z,122.20
2019-05-05T03:04:16.983Z,112.88
2019-05-05T03:06:54.194Z,121.95
2019-05-05T03:09:30.603Z,114.52
2019-05-05T03:12:05.402Z,117.97
2019-05-05T03:14:40.155Z,117.53
2019-05-05T03:17:14.511Z,108.35
2019-05-05T03:19:46.933Z,110.55
2019-05-05T03:22:19.785Z,105.95
2019-05-05T03:24:54.030Z,118.82
2019-05-05T03:27:26.054Z,119.45
2019-05-05T03:29:59.000Z,113.05
2019-05-05T03:32:35.716Z,110.97
2019-05-05T03:35:06.617Z,111.00
2019-05-05T03:37:39.183Z,107.80
2019-05-05T03:40:14.804Z,105.63
2019-05-05T03:42:48.745Z,107.83
2019-05-05T03:45:25.667Z,104.05
2019-05-05T03:47:58.646Z,91.57
2019-05-05T03:53:04.806Z,91.87
2019-05-05T03:55:37.753Z,89.30
2019-05-05T03:58:10.763Z,87.90
2019-05-05T04:00:49.296Z,81.57
2019-05-05T04:03:23.674Z,81.37
2019-05-05T04:05:57.350Z,75.20
2019-05-05T04:08:30.673Z,82.12
2019-05-05T04:11:05.650Z,80.10
2019-05-05T04:13:38.541Z,79.70
2019-05-05T04:16:13.645Z,78.22
2019-05-05T04:18:54.254Z,80.77
2019-05-05T04:21:33.766Z,76.65
2019-05-05T04:24:06.027Z,76.60
2019-05-05T04:26:39.070Z,73.78
2019-05-05T04:29:13.824Z,86.80
2019-05-05T04:31:46.454Z,73.52
2019-05-05T04:35:37.014Z,82.70
2019-05-05T04:37:10.823Z,82.33
2019-05-05T04:42:16.176Z,95.50
2019-05-05T04:44:48.825Z,79.82
2019-05-05T04:50:04.194Z,92.75
2019-05-05T04:52:35.972Z,91.70
2019-05-05T04:55:09.712Z,144.00
2019-05-05T04:57:43.674Z,109.22
2019-05-05T05:00:16.896Z,112.62
2019-05-05T05:05:33.861Z,95.70
2019-05-05T05:08:06.713Z,98.80
2019-05-05T05:10:39.229Z,96.17
2019-05-05T05:13:13.348Z,92.97
2019-05-05T05:15:45.769Z,98.55
2019-05-05T05:18:18.771Z,99.75
2019-05-05T05:20:51.628Z,98.00
2019-05-05T05:23:24.657Z,99.47
2019-05-05T05:25:57.297Z,97.62
2019-05-05T05:28:30.179Z,96.35
2019-05-05T05:31:03.976Z,104.20
2019-05-05T05:33:36.826Z,92.10
2019-05-05T05:36:09.344Z,94.80
2019-05-05T05:38:43.750Z,94.32
2019-05-05T05:41:20.779Z,94.65
2019-05-05T05:44:11.029Z,88.45
2019-05-05T05:46:45.537Z,99.32
2019-05-05T05:49:19.342Z,94.17
2019-05-05T05:51:53.781Z,101.05
2019-05-05T05:54:26.393Z,107.87
2019-05-05T05:56:59.185Z,100.67
2019-05-05T05:59:33.831Z,97.05
2019-05-05T06:02:12.297Z,103.40
2019-05-05T06:04:40.755Z,97.55
2019-05-05T06:07:14.260Z,102.00
2019-05-05T06:09:47.449Z,99.45
2019-05-05T06:12:20.243Z,100.92
2019-05-05T06:14:53.689Z,111.62
2019-05-05T06:17:26.358Z,98.35
2019-05-05T06:19:59.490Z,103.07
2019-05-05T06:22:33.877Z,112.92
2019-05-05T06:25:07.433Z,114.70
2019-05-05T06:27:40.622Z,104.25
2019-05-05T06:30:16.098Z,108.85
2019-05-05T06:32:49.172Z,106.80
2019-05-05T06:35:21.950Z,114.77
2019-05-05T06:37:54.918Z,114.82
2019-05-05T06:43:04.401Z,118.35
2019-05-05T06:45:37.932Z,119.10
2019-05-05T06:48:10.580Z,118.97
2019-05-05T06:53:16.371Z,107.97
2019-05-05T06:58:20.762Z,123.05
2019-05-05T07:00:54.296Z,111.55
2019-05-05T07:03:26.946Z,122.02
2019-05-05T07:05:59.513Z,125.15
2019-05-05T07:08:34.496Z,107.67
2019-05-05T07:11:07.546Z,114.55
2019-05-05T07:13:39.952Z,114.37
2019-05-05T07:16:14.731Z,111.72
2019-05-05T07:18:46.213Z,117.33
2019-05-05T07:21:18.694Z,111.57
2019-05-05T07:23:51.019Z,114.00
2019-05-05T07:26:23.869Z,118.82
2019-05-05T07:28:56.160Z,111.55
2019-05-05T07:31:29.048Z,120.25
2019-05-05T07:34:04.586Z,107.67
2019-05-05T07:36:49.884Z,110.92
2019-05-05T07:39:23.747Z,120.82
2019-05-05T07:41:57.083Z,121.55
2019-05-05T07:44:29.931Z,109.92
2019-05-05T07:47:03.948Z,114.67
2019-05-05T07:49:37.063Z,115.97
2019-05-05T07:52:10.306Z,114.08
2019-05-05T07:54:43.627Z,106.37
2019-05-05T07:57:16.141Z,104.58
2019-05-05T07:59:48.541Z,119.17
2019-05-05T08:02:23.522Z,118.55
2019-05-05T08:04:56.751Z,100.92
2019-05-05T08:07:29.374Z,101.05
2019-05-05T08:10:04.381Z,117.67
2019-05-05T08:12:36.139Z,118.17
2019-05-05T08:18:04.438Z,88.15
2019-05-05T08:20:38.393Z,113.12
2019-05-05T08:23:28.014Z,115.60
2019-05-05T08:25:47.153Z,121.47
2019-05-05T08:28:29.971Z,116.22
2019-05-05T08:31:04.642Z,116.10
2019-05-05T08:33:37.042Z,117.95
2019-05-05T08:36:10.079Z,117.97
2019-05-05T08:41:13.995Z,127.87
2019-05-05T08:43:46.721Z,126.75
2019-05-05T08:46:19.187Z,110.60
2019-05-05T08:48:53.633Z,117.22
2019-05-05T08:51:26.011Z,110.42
2019-05-05T08:53:58.516Z,121.90
2019-05-05T08:56:31.350Z,124.22
2019-05-05T08:59:03.903Z,127.80
2019-05-05T09:01:36.521Z,118.42
2019-05-05T09:04:08.944Z,122.25
2019-05-05T09:06:43.727Z,125.07
2019-05-05T09:09:16.132Z,118.70
2019-05-05T09:11:48.631Z,127.90
2019-05-05T09:14:24.724Z,122.45
2019-05-05T09:16:57.513Z,129.65
2019-05-05T09:19:30.346Z,120.72
2019-05-05T09:22:06.719Z,127.67
2019-05-05T09:24:41.789Z,121.47
2019-05-05T09:27:16.101Z,122.05
2019-05-05T09:29:48.931Z,118.40
2019-05-05T09:32:24.135Z,122.80
2019-05-05T09:34:55.825Z,124.38
2019-05-05T09:37:29.292Z,129.55
2019-05-05T09:40:01.870Z,127.35
2019-05-05T09:42:35.289Z,122.37
2019-05-05T09:45:09.209Z,118.55
2019-05-05T09:47:41.827Z,124.07
2019-05-05T09:52:46.915Z,123.87
2019-05-05T09:55:19.432Z,133.05
2019-05-05T09:57:54.014Z,122.92
2019-05-05T10:00:26.360Z,123.50
2019-05-05T10:02:58.786Z,129.70
2019-05-05T10:05:34.098Z,129.65
2019-05-05T10:08:06.578Z,124.72
2019-05-05T10:13:14.566Z,118.40
2019-05-05T10:15:46.248Z,131.30
2019-05-05T10:18:18.640Z,141.45
2019-05-05T10:20:54.065Z,128.72
2019-05-05T10:23:31.442Z,133.32
2019-05-05T10:26:06.356Z,127.82
2019-05-05T10:28:39.322Z,123.97
2019-05-05T10:33:47.806Z,126.10
2019-05-05T10:36:20.279Z,122.22
2019-05-05T10:38:54.441Z,129.82
2019-05-05T10:41:27.622Z,143.55
2019-05-05T10:46:33.985Z,124.70
2019-05-05T10:49:06.276Z,125.75
2019-05-05T10:56:40.609Z,127.90
2019-05-05T10:59:12.955Z,138.20
2019-05-05T11:01:45.890Z,141.77
2019-05-05T11:04:18.175Z,138.43
2019-05-05T11:06:50.902Z,137.80
2019-05-05T11:09:24.418Z,139.35
2019-05-05T11:11:57.287Z,141.15
2019-05-05T11:14:29.751Z,142.43
2019-05-05T11:19:35.394Z,126.97
2019-05-05T11:22:08.608Z,140.70
2019-05-05T11:24:54.223Z,137.43
2019-05-05T11:27:15.802Z,142.62
2019-05-05T11:30:05.494Z,137.05
2019-05-05T11:32:56.491Z,132.55
2019-05-05T11:35:46.950Z,131.07
2019-05-05T11:38:24.707Z,139.70
2019-05-05T11:40:57.687Z,128.35
2019-05-05T11:43:33.733Z,120.20
2019-05-05T11:46:06.890Z,129.60
2019-05-05T11:48:40.689Z,118.72
2019-05-05T11:54:09.379Z,97.05
2019-05-05T11:56:44.519Z,90.40
2019-05-05T11:59:16.806Z,79.15
2019-05-05T12:04:23.921Z,70.30
2019-05-05T12:06:59.155Z,64.03
2019-05-05T12:09:33.748Z,59.58
2019-05-05T12:12:07.396Z,65.45
2019-05-05T12:14:40.289Z,64.85
2019-05-05T12:17:26.698Z,58.68
2019-05-05T12:20:07.008Z,66.57
2019-05-05T12:22:44.677Z,60.08
2019-05-05T12:25:43.716Z,61.68
2019-05-05T12:28:25.114Z,58.28
2019-05-05T12:31:16.903Z,58.68
2019-05-05T12:33:49.739Z,64.87
2019-05-05T12:39:22.167Z,64.67
2019-05-05T12:41:54.616Z,69.90
2019-05-05T12:44:33.989Z,60.92
2019-05-05T12:47:15.523Z,61.83
2019-05-05T12:49:56.661Z,62.48
2019-05-05T12:52:34.290Z,71.82
2019-05-05T12:55:08.736Z,60.23
2019-05-05T12:57:43.505Z,57.33
2019-05-05T13:00:17.031Z,62.25
2019-05-05T13:02:53.682Z,64.87
2019-05-05T13:05:26.216Z,60.15
2019-05-05T13:07:58.694Z,55.70
2019-05-05T13:10:34.806Z,67.47
2019-05-05T13:13:19.544Z,58.45
2019-05-05T13:15:56.909Z,59.88
2019-05-05T13:18:31.038Z,61.20
2019-05-05T13:21:14.060Z,62.65
2019-05-05T13:23:54.455Z,61.08
2019-05-05T13:26:31.058Z,62.83
2019-05-05T13:29:04.759Z,61.68
2019-05-05T13:31:40.830Z,55.48
2019-05-05T13:34:14.171Z,61.50
2019-05-05T13:36:47.440Z,61.60
2019-05-05T13:39:21.242Z,65.35
2019-05-05T13:41:53.992Z,57.13
2019-05-05T13:44:40.233Z,61.83
2019-05-05T13:54:24.072Z,66.75
2019-05-05T13:56:56.027Z,60.98
2019-05-05T13:59:29.183Z,67.03
2019-05-05T14:02:01.705Z,64.15
2019-05-05T14:04:36.153Z,57.93
2019-05-05T14:09:41.712Z,61.20
2019-05-05T14:12:14.737Z,64.85
2019-05-05T14:14:47.776Z,67.42
2019-05-05T14:17:22.670Z,66.05
2019-05-05T14:20:05.190Z,62.60
2019-05-05T14:22:34.525Z,75.83
2019-05-05T14:25:24.067Z,63.13
2019-05-05T14:27:57.204Z,60.63
2019-05-05T14:30:54.028Z,60.63
2019-05-05T14:33:31.819Z,61.68
2019-05-05T14:36:15.207Z,56.80
2019-05-05T14:38:54.055Z,65.35
2019-05-05T14:41:26.360Z,55.35
2019-05-05T14:43:59.026Z,66.53
2019-05-05T14:46:33.927Z,56.40
2019-05-05T14:49:07.226Z,62.45
2019-05-05T14:51:40.842Z,63.70
2019-05-05T14:54:14.995Z,58.63
2019-05-05T14:56:49.623Z,63.85
2019-05-05T14:59:23.513Z,67.75
2019-05-05T15:01:56.600Z,61.85
2019-05-05T15:04:30.507Z,58.08
2019-05-05T15:07:10.606Z,59.20
2019-05-05T15:10:04.227Z,55.83
2019-05-05T15:12:38.526Z,57.43
2019-05-05T15:15:11.060Z,59.98
2019-05-05T15:17:43.686Z,65.25
2019-05-05T15:20:16.970Z,63.38
2019-05-05T15:22:49.558Z,65.35
2019-05-05T15:25:23.446Z,53.90
2019-05-05T15:27:56.860Z,57.40
2019-05-05T15:30:29.376Z,62.67
2019-05-05T15:33:01.924Z,64.35
2019-05-05T15:35:34.134Z,65.70
2019-05-05T15:38:07.904Z,60.12
2019-05-05T15:40:41.714Z,64.45
2019-05-05T15:43:14.357Z,69.77
2019-05-05T15:45:47.884Z,61.65
2019-05-05T15:48:20.511Z,65.80
2019-05-05T15:50:54.504Z,58.38
2019-05-05T15:53:26.928Z,56.05
2019-05-05T15:55:59.488Z,63.00
2019-05-05T15:58:34.287Z,67.05
2019-05-05T16:01:06.826Z,65.57
2019-05-05T16:03:43.554Z,60.40
2019-05-05T16:06:16.314Z,60.08
2019-05-05T16:08:49.134Z,61.85
2019-05-05T16:11:23.400Z,54.93
2019-05-05T16:13:56.218Z,61.50
2019-05-05T16:19:18.207Z,62.48
2019-05-05T16:21:58.166Z,70.87
2019-05-05T16:24:38.432Z,66.57
2019-05-05T16:27:21.160Z,67.47
2019-05-05T16:29:46.594Z,65.67
2019-05-05T16:32:22.074Z,65.80
2019-05-05T16:34:54.901Z,71.05
2019-05-05T16:37:28.634Z,72.32
2019-05-05T16:40:01.171Z,73.37
2019-05-05T16:42:35.120Z,89.10
2019-05-05T16:45:13.665Z,82.00
2019-05-05T16:47:46.183Z,67.75
2019-05-05T16:50:18.892Z,151.27
2019-05-05T16:53:03.768Z,129.07
2019-05-05T16:55:44.836Z,77.87
2019-05-05T16:58:17.360Z,74.45
2019-05-05T17:00:50.223Z,69.10
2019-05-05T17:03:23.952Z,75.40
2019-05-05T17:05:59.464Z,72.32
2019-05-05T17:08:33.607Z,109.05
2019-05-05T17:11:05.815Z,87.05
2019-05-05T17:13:54.182Z,90.77
2019-05-05T17:16:36.832Z,75.90
2019-05-05T17:19:13.788Z,79.82
2019-05-05T17:21:53.592Z,77.95
2019-05-05T17:24:26.639Z,77.47
2019-05-05T17:27:00.836Z,79.95
2019-05-05T17:32:04.831Z,74.55
2019-05-05T17:34:37.301Z,76.95
2019-05-05T17:37:10.251Z,77.58
2019-05-05T17:42:24.160Z,79.20
2019-05-05T17:44:59.101Z,81.32
2019-05-05T17:47:41.779Z,79.05
2019-05-05T17:50:15.558Z,79.42
2019-05-05T17:53:05.079Z,80.10
2019-05-05T17:55:38.886Z,80.12
2019-05-05T17:58:11.427Z,84.52
2019-05-05T18:00:47.125Z,83.95
2019-05-05T18:03:20.120Z,85.65
2019-05-05T18:05:54.748Z,87.37
2019-05-05T18:08:46.912Z,85.62
2019-05-05T18:11:37.211Z,88.78
2019-05-05T18:14:11.296Z,77.78
2019-05-05T18:16:44.761Z,79.90
2019-05-05T18:19:17.317Z,73.80
2019-05-05T18:21:50.278Z,73.67
2019-05-05T18:24:24.303Z,74.87
2019-05-05T18:29:28.466Z,78.90
2019-05-05T18:32:01.040Z,83.15
2019-05-05T18:34:33.815Z,82.88
2019-05-05T18:37:06.580Z,84.97
2019-05-05T18:42:14.794Z,86.90
2019-05-05T18:44:49.988Z,92.60
2019-05-05T18:47:24.861Z,102.15
2019-05-05T18:49:56.619Z,100.10
2019-05-05T18:52:29.434Z,108.70
2019-05-05T18:57:35.201Z,104.33
2019-05-05T19:00:09.954Z,105.43
2019-05-05T19:02:44.290Z,101.38
2019-05-05T19:05:18.559Z,94.28
2019-05-05T19:08:04.776Z,106.05
2019-05-05T19:10:37.911Z,98.80
2019-05-05T19:13:11.095Z,105.05
2019-05-05T19:15:44.610Z,103.70
2019-05-05T19:18:17.691Z,104.12
2019-05-05T19:20:54.856Z,108.37
2019-05-05T19:23:27.261Z,115.42
2019-05-05T19:25:59.699Z,127.07
2019-05-05T19:28:42.095Z,108.40
2019-05-05T19:31:06.254Z,112.10
2019-05-05T19:33:39.219Z,122.07
2019-05-05T19:36:12.156Z,124.82
2019-05-05T19:38:44.584Z,116.00
2019-05-05T19:41:17.433Z,140.52
2019-05-05T19:43:54.964Z,118.77
2019-05-05T19:46:45.694Z,122.50
2019-05-05T19:49:21.735Z,135.65
2019-05-05T19:51:54.376Z,129.30
2019-05-05T19:54:27.053Z,125.72
2019-05-05T19:56:59.778Z,115.60
2019-05-05T20:02:04.505Z,131.45
2019-05-05T20:04:36.928Z,127.62
2019-05-05T20:07:09.703Z,137.40
2019-05-05T20:09:43.610Z,127.60
2019-05-05T20:12:16.261Z,131.27
2019-05-05T20:14:48.977Z,130.10
2019-05-05T20:17:35.143Z,138.15
2019-05-05T20:20:09.249Z,117.37
2019-05-05T20:22:44.186Z,123.28
2019-05-05T20:25:16.526Z,112.15
2019-05-05T20:27:49.031Z,124.62
2019-05-05T20:30:21.853Z,125.72
2019-05-05T20:32:56.368Z,124.60
2019-05-05T20:35:30.878Z,122.60
2019-05-05T20:38:21.082Z,131.72
2019-05-05T20:41:14.233Z,122.13
2019-05-05T20:43:47.670Z,117.70
2019-05-05T20:46:20.316Z,124.02
2019-05-05T20:48:54.444Z,119.60
2019-05-05T20:51:26.486Z,111.35
2019-05-05T20:53:58.834Z,112.03
2019-05-05T20:56:33.665Z,116.88
2019-05-05T20:59:05.213Z,113.50
2019-05-05T21:01:37.826Z,126.80
2019-05-05T21:04:10.186Z,117.93
2019-05-05T21:06:43.851Z,115.30
2019-05-05T21:09:16.387Z,113.77
2019-05-05T21:11:49.055Z,110.32
2019-05-05T21:14:33.724Z,111.47
2019-05-05T21:16:55.312Z,104.83
2019-05-05T21:19:28.583Z,110.55
2019-05-05T21:22:04.206Z,102.60
2019-05-05T21:24:36.958Z,102.45
2019-05-05T21:27:09.486Z,95.10
2019-05-05T21:29:42.460Z,112.37
2019-05-05T21:32:17.199Z,108.55
2019-05-05T21:34:49.438Z,105.85
2019-05-05T21:37:22.151Z,108.17
2019-05-05T21:42:27.636Z,103.27
2019-05-05T21:45:00.572Z,103.27
2019-05-05T21:47:34.436Z,103.60
2019-05-05T21:50:08.429Z,112.37
2019-05-05T21:52:42.068Z,106.83
2019-05-05T21:55:24.458Z,104.17
2019-05-05T21:58:01.639Z,110.80
2019-05-05T22:00:41.475Z,110.03
2019-05-05T22:03:16.472Z,105.95
2019-05-05T22:05:49.238Z,107.45
2019-05-05T22:08:23.844Z,105.45
2019-05-05T22:10:55.977Z,113.28
2019-05-05T22:13:29.269Z,118.80
2019-05-05T22:16:03.887Z,120.92
2019-05-05T22:18:36.417Z,127.15
2019-05-05T22:21:10.269Z,124.90
2019-05-05T22:23:44.062Z,120.70
2019-05-05T22:26:17.351Z,121.20
2019-05-05T22:28:50.297Z,127.10
2019-05-05T22:31:23.812Z,125.92
2019-05-05T22:33:56.517Z,125.27
2019-05-05T22:36:29.088Z,128.15
2019-05-05T22:39:01.579Z,143.02
2019-05-05T22:41:35.994Z,126.30
2019-05-05T22:44:10.300Z,131.95
2019-05-05T22:46:42.635Z,139.18
2019-05-05T22:49:15.379Z,135.93
2019-05-05T22:51:47.881Z,131.35
2019-05-05T22:54:20.856Z,131.35
2019-05-05T22:56:53.997Z,135.78
2019-05-05T22:59:28.026Z,127.15
2019-05-05T23:02:00.412Z,124.45
2019-05-05T23:07:55.310Z,109.63
2019-05-05T23:10:28.100Z,110.08
2019-05-05T23:13:00.843Z,118.70
2019-05-05T23:15:37.027Z,117.82
2019-05-05T23:18:17.607Z,111.97
2019-05-05T23:21:09.545Z,116.65
2019-05-05T23:23:43.344Z,103.70
2019-05-05T23:26:17.782Z,111.50
2019-05-05T23:28:51.114Z,113.00
2019-05-05T23:31:24.243Z,113.65
2019-05-05T23:33:56.840Z,114.97
2019-05-05T23:36:29.784Z,105.60
2019-05-05T23:39:03.992Z,110.12
2019-05-05T23:41:37.484Z,105.55
2019-05-05T23:46:41.686Z,113.65
2019-05-05T23:49:14.750Z,111.17
2019-05-05T23:54:18.614Z,104.90
2019-05-05T23:56:53.621Z,105.12
2019-05-05T23:59:25.593Z,117.00
